Time;durP1;ratioP1;P1;durP2;ratioP2;P2;SDS_P1;SDS_P2;PMS_P1;PMS_P2;Temp;Humidity;BMP_temperature;BMP_pressure;BME280_temperature;BME280_humidity;BME280_pressure;Samples;Min_cycle;Max_cycle;Signal;HPM_P1;HPM_P2
2021/08/26 00:01:16;;;;;;;6.03;4.30;;;15.20;1.00;;;;;;6198429;23;20665;-82
2021/08/26 00:06:27;;;;;;;5.20;4.30;;;15.10;1.00;;;;;;6185558;23;20408;-83
2021/08/26 00:08:54;;;;;;;8.80;5.10;;;15.10;1.00;;;;;;6181460;23;20398;-82
2021/08/26 00:11:24;;;;;;;6.60;4.83;;;15.10;1.00;;;;;;6180893;23;20395;-83
2021/08/26 00:13:52;;;;;;;6.60;3.93;;;15.10;1.00;;;;;;6178530;23;20411;-82
2021/08/26 00:16:25;;;;;;;10.83;4.03;;;15.10;1.00;;;;;;6181034;23;20429;-85
2021/08/26 00:18:53;;;;;;;6.07;3.80;;;15.00;1.00;;;;;;6175502;23;20747;-83
2021/08/26 00:21:20;;;;;;;5.67;4.10;;;15.00;1.00;;;;;;6183292;23;20398;-83
2021/08/26 00:23:50;;;;;;;10.33;3.73;;;15.10;1.00;;;;;;6187262;23;20419;-83
2021/08/26 00:26:17;;;;;;;7.50;4.27;;;15.10;1.00;;;;;;6190239;23;20506;-83
2021/08/26 00:28:46;;;;;;;6.87;4.03;;;15.10;1.00;;;;;;6189047;23;20443;-83
2021/08/26 00:31:13;;;;;;;7.30;4.40;;;15.10;1.00;;;;;;6159870;23;20406;-82
2021/08/26 00:33:40;;;;;;;5.87;4.33;;;15.10;1.00;;;;;;6186223;23;20390;-83
2021/08/26 00:36:06;;;;;;;10.80;4.70;;;15.00;1.00;;;;;;6183669;23;20411;-82
2021/08/26 00:38:34;;;;;;;7.87;5.10;;;15.00;1.00;;;;;;6181123;23;20415;-84
2021/08/26 00:41:01;;;;;;;5.67;4.10;;;15.00;1.00;;;;;;6178962;23;20823;-83
2021/08/26 00:43:32;;;;;;;8.27;5.10;;;15.00;1.00;;;;;;6151513;23;20418;-85
2021/08/26 00:46:03;;;;;;;7.47;4.80;;;15.00;1.00;;;;;;6178733;23;21133;-84
2021/08/26 00:48:30;;;;;;;6.17;4.63;;;14.90;1.00;;;;;;6181376;23;21011;-83
2021/08/26 00:50:58;;;;;;;7.17;4.37;;;14.90;1.00;;;;;;6183523;23;21180;-83
2021/08/26 00:53:25;;;;;;;7.93;4.47;;;14.90;1.00;;;;;;6151653;23;20407;-83
2021/08/26 00:55:53;;;;;;;8.57;5.67;;;14.90;1.00;;;;;;6151728;23;20904;-83
2021/08/26 00:58:21;;;;;;;9.13;5.10;;;14.90;1.00;;;;;;6178029;23;20438;-85
2021/08/26 01:00:51;;;;;;;7.27;5.43;;;14.90;1.00;;;;;;6180665;23;20383;-84
2021/08/26 01:03:27;;;;;;;6.70;5.10;;;14.80;1.00;;;;;;6180070;23;20393;-85
2021/08/26 01:05:55;;;;;;;8.67;5.50;;;14.80;1.00;;;;;;6180115;23;20409;-83
2021/08/26 01:08:35;;;;;;;8.03;5.80;;;14.90;1.00;;;;;;6181711;23;20406;-83
2021/08/26 01:11:04;;;;;;;8.20;4.90;;;14.90;1.00;;;;;;6180931;23;20421;-84
2021/08/26 01:13:35;;;;;;;9.03;5.23;;;14.80;1.00;;;;;;6153126;23;20762;-83
2021/08/26 01:16:07;;;;;;;8.70;4.60;;;14.80;1.00;;;;;;6181628;23;20908;-84
2021/08/26 01:18:37;;;;;;;7.97;5.47;;;14.80;1.00;;;;;;6153119;23;20423;-83
2021/08/26 01:21:04;;;;;;;7.83;5.30;;;14.90;1.00;;;;;;6196182;22;20351;-83
2021/08/26 01:23:34;;;;;;;10.60;5.57;;;14.90;1.00;;;;;;6204581;22;20410;-82
2021/08/26 01:26:05;;;;;;;9.53;5.27;;;14.90;1.00;;;;;;6179261;23;20438;-84
2021/08/26 01:28:36;;;;;;;11.23;5.23;;;14.90;1.00;;;;;;6185983;23;20411;-83
2021/08/26 01:31:03;;;;;;;6.27;5.40;;;14.90;1.00;;;;;;6186933;23;20363;-84
2021/08/26 01:33:30;;;;;;;11.63;5.30;;;14.90;1.00;;;;;;6186349;23;20387;-83
2021/08/26 01:35:58;;;;;;;9.90;4.93;;;14.90;1.00;;;;;;6187286;23;20522;-84
2021/08/26 01:38:25;;;;;;;9.17;4.80;;;14.90;1.00;;;;;;6188512;23;20720;-83
2021/08/26 01:40:52;;;;;;;8.03;4.30;;;15.00;1.00;;;;;;6161852;23;20438;-84
2021/08/26 01:43:23;;;;;;;7.00;5.00;;;15.00;1.00;;;;;;6188609;23;20785;-84
2021/08/26 01:45:50;;;;;;;6.23;4.97;;;15.00;1.00;;;;;;6190879;23;20398;-84
2021/08/26 01:48:18;;;;;;;8.67;5.10;;;15.00;1.00;;;;;;6161444;23;20412;-85
2021/08/26 01:50:46;;;;;;;7.30;5.30;;;15.00;1.00;;;;;;6188568;23;20415;-83
2021/08/26 01:53:13;;;;;;;10.40;5.13;;;15.10;1.00;;;;;;6185157;23;20481;-85
2021/08/26 01:55:41;;;;;;;6.67;4.40;;;15.20;1.00;;;;;;6183546;23;20410;-86
2021/08/26 01:58:09;;;;;;;7.70;5.07;;;15.10;1.00;;;;;;6182920;23;20738;-85
2021/08/26 02:00:38;;;;;;;8.77;5.83;;;15.10;1.00;;;;;;6184138;23;20400;-84
2021/08/26 02:03:05;;;;;;;12.27;5.33;;;15.10;1.00;;;;;;6183756;23;20427;-85
2021/08/26 02:05:32;;;;;;;9.07;5.40;;;15.10;1.00;;;;;;6184632;23;20478;-85
2021/08/26 02:07:59;;;;;;;9.30;5.23;;;15.10;1.00;;;;;;6183690;23;20470;-84
2021/08/26 02:10:26;;;;;;;8.30;4.43;;;15.10;1.00;;;;;;6188468;23;20489;-83
2021/08/26 02:12:53;;;;;;;8.40;5.80;;;15.10;1.00;;;;;;6163513;23;20581;-85
2021/08/26 02:15:20;;;;;;;9.40;5.27;;;15.10;1.00;;;;;;6186692;23;20379;-85
2021/08/26 02:17:50;;;;;;;7.87;5.50;;;15.10;1.00;;;;;;6186437;23;20426;-84
2021/08/26 02:20:18;;;;;;;6.63;4.83;;;15.10;1.00;;;;;;6186430;23;20496;-84
2021/08/26 02:22:45;;;;;;;14.07;6.03;;;15.10;1.00;;;;;;6159800;23;20446;-85
2021/08/26 02:25:13;;;;;;;10.80;5.50;;;15.00;1.00;;;;;;6160775;23;20446;-84
2021/08/26 02:27:40;;;;;;;8.17;5.73;;;15.00;1.00;;;;;;6178269;23;20397;-84
2021/08/26 02:30:09;;;;;;;9.20;6.73;;;15.00;1.00;;;;;;6205535;22;20411;-83
2021/08/26 02:32:37;;;;;;;12.80;6.10;;;15.00;1.00;;;;;;6196358;22;20399;-84
2021/08/26 02:35:10;;;;;;;9.27;4.90;;;15.00;1.00;;;;;;6156756;23;20489;-85
2021/08/26 02:37:37;;;;;;;11.13;5.80;;;15.00;1.00;;;;;;6156789;23;20415;-84
2021/08/26 02:40:05;;;;;;;9.43;5.97;;;15.00;1.00;;;;;;6182583;23;20409;-84
2021/08/26 02:42:32;;;;;;;9.30;5.57;;;14.90;1.00;;;;;;6182015;23;20554;-83
2021/08/26 02:44:58;;;;;;;14.87;6.27;;;15.00;1.00;;;;;;6157839;23;20409;-83
2021/08/26 02:47:25;;;;;;;13.43;6.57;;;14.90;1.00;;;;;;6183956;23;20414;-85
2021/08/26 02:49:55;;;;;;;9.70;5.63;;;14.90;1.00;;;;;;6184011;23;20387;-84
2021/08/26 02:52:25;;;;;;;10.90;6.00;;;15.00;1.00;;;;;;6184515;23;20457;-84
2021/08/26 02:54:52;;;;;;;8.67;6.13;;;15.00;1.00;;;;;;6185860;23;20408;-83
2021/08/26 02:57:19;;;;;;;17.27;6.30;;;15.00;1.00;;;;;;6185418;23;20378;-85
2021/08/26 02:59:47;;;;;;;13.23;6.17;;;15.00;1.00;;;;;;6190048;23;20416;-84
2021/08/26 03:02:14;;;;;;;9.60;6.47;;;15.00;1.00;;;;;;6194128;23;20888;-84
2021/08/26 03:04:41;;;;;;;12.57;6.37;;;15.00;1.00;;;;;;6183861;22;20957;-82
2021/08/26 03:07:10;;;;;;;10.27;6.00;;;15.00;1.00;;;;;;6182699;23;20382;-83
2021/08/26 03:09:39;;;;;;;13.70;6.73;;;14.90;1.00;;;;;;6209774;23;20402;-84
2021/08/26 03:12:06;;;;;;;13.30;6.20;;;14.90;1.00;;;;;;6195598;22;20437;-83
2021/08/26 03:14:33;;;;;;;15.23;7.27;;;14.90;1.00;;;;;;6190033;23;20562;-83
2021/08/26 03:17:00;;;;;;;11.73;6.57;;;14.90;1.00;;;;;;6194672;23;20430;-83
2021/08/26 03:19:27;;;;;;;12.93;6.37;;;14.90;1.00;;;;;;6168950;23;20411;-84
2021/08/26 03:21:54;;;;;;;15.33;7.77;;;14.80;1.00;;;;;;6165733;23;20421;-86
2021/08/26 03:24:28;;;;;;;16.60;7.87;;;14.80;1.00;;;;;;6192788;23;20391;-86
2021/08/26 03:27:00;;;;;;;16.93;8.17;;;14.80;1.00;;;;;;6166861;23;20896;-85
2021/08/26 03:29:26;;;;;;;15.30;6.87;;;14.70;1.00;;;;;;6174762;22;20449;-85
2021/08/26 03:31:57;;;;;;;13.83;7.77;;;14.70;1.00;;;;;;6215672;22;20492;-85
2021/08/26 03:34:25;;;;;;;14.93;8.73;;;14.60;1.00;;;;;;6184891;23;20434;-85
2021/08/26 03:36:52;;;;;;;16.30;8.07;;;14.60;1.00;;;;;;6201817;23;20410;-85
2021/08/26 03:39:19;;;;;;;11.47;7.10;;;14.60;1.00;;;;;;6196241;23;21573;-85
2021/08/26 03:41:46;;;;;;;16.77;8.80;;;14.60;1.00;;;;;;6173828;23;20415;-85
2021/08/26 03:44:14;;;;;;;13.53;7.70;;;14.60;1.00;;;;;;6198881;23;20363;-86
2021/08/26 03:46:41;;;;;;;16.97;9.20;;;14.60;1.00;;;;;;6210002;22;20419;-84
2021/08/26 03:49:07;;;;;;;16.40;8.07;;;14.60;1.00;;;;;;6216522;22;20342;-83
2021/08/26 03:51:35;;;;;;;11.70;7.37;;;14.60;1.00;;;;;;6189068;22;20390;-82
2021/08/26 03:54:02;;;;;;;12.80;7.90;;;14.60;1.00;;;;;;6215357;22;20345;-82
2021/08/26 03:56:29;;;;;;;18.03;7.73;;;14.70;1.00;;;;;;6215110;22;20421;-81
2021/08/26 03:58:55;;;;;;;20.03;10.00;;;14.70;1.00;;;;;;6215227;22;20358;-83
2021/08/26 04:01:24;;;;;;;15.37;8.30;;;14.80;1.00;;;;;;6215283;22;20394;-82
2021/08/26 04:03:51;;;;;;;20.50;9.30;;;14.70;1.00;;;;;;6215787;22;20380;-82
2021/08/26 04:06:17;;;;;;;14.07;8.47;;;14.80;1.00;;;;;;6214151;22;20414;-83
2021/08/26 04:08:44;;;;;;;18.30;8.00;;;14.70;1.00;;;;;;6216489;22;20350;-83
2021/08/26 04:11:11;;;;;;;17.17;7.90;;;14.80;1.00;;;;;;6189263;22;20401;-84
2021/08/26 04:13:38;;;;;;;18.40;8.60;;;14.80;1.00;;;;;;6215908;22;20377;-84
2021/08/26 04:16:05;;;;;;;12.37;8.43;;;14.90;1.00;;;;;;6214596;22;20366;-84
2021/08/26 04:18:34;;;;;;;14.83;8.40;;;14.90;1.00;;;;;;6213359;22;20378;-83
2021/08/26 04:21:01;;;;;;;16.70;9.10;;;14.90;1.00;;;;;;6189342;22;20383;-84
2021/08/26 04:23:28;;;;;;;15.07;9.33;;;14.90;1.00;;;;;;6188146;22;20402;-83
2021/08/26 04:25:55;;;;;;;16.37;8.20;;;14.90;1.00;;;;;;6214173;22;20378;-84
2021/08/26 04:28:37;;;;;;;15.67;8.80;;;14.90;1.00;;;;;;6216165;22;20411;-90
2021/08/26 04:31:05;;;;;;;16.97;9.00;;;14.90;1.00;;;;;;6189833;22;20406;-81
2021/08/26 04:33:39;;;;;;;21.23;9.53;;;14.90;1.00;;;;;;6214985;22;20435;-87
2021/08/26 04:36:06;;;;;;;14.10;8.57;;;15.00;1.00;;;;;;6213956;22;20471;-88
2021/08/26 04:38:34;;;;;;;15.13;8.83;;;15.10;1.00;;;;;;6187903;22;20344;-88
2021/08/26 04:41:01;;;;;;;16.67;8.50;;;15.10;1.00;;;;;;6214918;22;20375;-87
2021/08/26 04:43:28;;;;;;;15.40;9.83;;;15.10;1.00;;;;;;6213567;22;20365;-87
2021/08/26 04:45:55;;;;;;;17.63;8.73;;;15.10;1.00;;;;;;6188507;22;20422;-85
2021/08/26 04:48:25;;;;;;;14.13;7.93;;;15.10;1.00;;;;;;6180375;23;20416;-83
2021/08/26 04:50:54;;;;;;;16.37;10.00;;;15.10;1.00;;;;;;6186892;22;20383;-83
2021/08/26 04:53:24;;;;;;;18.50;9.90;;;15.10;1.00;;;;;;6211164;22;20488;-84
2021/08/26 04:55:51;;;;;;;16.27;8.77;;;15.10;1.00;;;;;;6209964;22;20415;-86
2021/08/26 04:58:19;;;;;;;16.93;8.90;;;15.20;1.00;;;;;;6205211;23;20367;-85
2021/08/26 05:00:46;;;;;;;14.70;8.20;;;15.10;1.00;;;;;;6212311;22;20364;-83
2021/08/26 05:03:14;;;;;;;17.80;9.83;;;15.20;1.00;;;;;;6212895;22;20343;-85
2021/08/26 05:05:53;;;;;;;22.63;9.00;;;15.20;1.00;;;;;;6208863;22;20425;-84
2021/08/26 05:08:23;;;;;;;16.30;9.20;;;15.20;1.00;;;;;;6195899;22;20421;-84
2021/08/26 05:10:50;;;;;;;15.00;8.87;;;15.20;1.00;;;;;;6187800;23;20388;-86
2021/08/26 05:13:17;;;;;;;17.50;8.47;;;15.30;1.00;;;;;;6204830;23;20444;-87
2021/08/26 05:15:44;;;;;;;19.50;10.00;;;15.30;1.00;;;;;;6207123;23;20470;-90
2021/08/26 05:18:12;;;;;;;17.77;8.50;;;15.40;1.00;;;;;;6180953;23;20463;-91
2021/08/26 05:20:39;;;;;;;21.97;9.93;;;15.40;1.00;;;;;;6174487;23;20399;-87
2021/08/26 05:23:10;;;;;;;17.83;9.80;;;15.50;1.00;;;;;;6188462;22;20359;-87
2021/08/26 05:25:38;;;;;;;19.40;9.43;;;15.60;1.00;;;;;;6216566;22;20368;-89
2021/08/26 05:28:15;;;;;;;;;;;;;;;;;;;;;
2021/08/26 05:30:54;;;;;;;17.50;8.80;;;15.60;1.00;;;;;;6189659;22;20384;-84
2021/08/26 05:33:21;;;;;;;19.53;9.80;;;15.60;1.00;;;;;;6213897;22;20392;-88
2021/08/26 05:35:48;;;;;;;16.83;10.17;;;15.60;1.00;;;;;;6212330;22;20417;-83
2021/08/26 05:38:21;;;;;;;17.23;8.77;;;15.60;1.00;;;;;;6212167;22;20363;-84
2021/08/26 05:40:52;;;;;;;15.93;9.70;;;15.50;1.00;;;;;;6213693;22;20395;-84
2021/08/26 05:43:29;;;;;;;20.20;9.73;;;15.60;1.00;;;;;;6211303;22;20339;-84
2021/08/26 05:46:10;;;;;;;17.33;9.80;;;15.60;1.00;;;;;;6213927;22;20375;-88
2021/08/26 05:48:46;;;;;;;18.87;12.27;;;15.50;1.00;;;;;;6212977;22;20399;-90
2021/08/26 06:54:02;;;;;;;16.43;8.27;;;16.10;1.00;;;;;;6195888;23;20387;-89
2021/08/26 06:56:40;;;;;;;15.93;9.20;;;16.30;1.00;;;;;;6197742;23;20466;-89
2021/08/26 06:59:07;;;;;;;14.13;8.70;;;16.30;1.00;;;;;;6183346;23;20362;-81
2021/08/26 07:01:34;;;;;;;14.33;8.53;;;16.20;1.00;;;;;;6178086;23;20387;-80
2021/08/26 07:04:00;;;;;;;14.60;8.20;;;16.20;1.00;;;;;;6178518;23;20497;-81
2021/08/26 07:06:28;;;;;;;14.40;7.63;;;16.40;1.00;;;;;;6178119;23;20415;-81
2021/08/26 07:08:58;;;;;;;13.10;7.07;;;16.40;1.00;;;;;;6183978;23;20363;-81
2021/08/26 07:11:25;;;;;;;16.30;7.90;;;16.50;1.00;;;;;;6182543;23;20421;-80
2021/08/26 07:13:52;;;;;;;16.17;7.87;;;16.70;1.00;;;;;;6153603;23;20476;-82
2021/08/26 07:16:18;;;;;;;14.20;6.50;;;17.00;1.00;;;;;;6177286;23;20431;-81
2021/08/26 07:18:45;;;;;;;19.30;7.37;;;17.10;1.00;;;;;;6178938;23;20825;-80
2021/08/26 07:21:12;;;;;;;13.07;7.80;;;17.20;1.00;;;;;;6179906;23;20444;-80
2021/08/26 07:23:39;;;;;;;12.77;7.43;;;17.20;1.00;;;;;;6179931;23;20409;-81
2021/08/26 07:26:07;;;;;;;11.13;7.10;;;17.30;1.00;;;;;;6177328;23;21716;-80
2021/08/26 07:28:34;;;;;;;11.17;5.10;;;17.30;1.00;;;;;;6178896;23;20440;-80
2021/08/26 07:31:01;;;;;;;11.53;6.47;;;17.30;1.00;;;;;;6178937;23;20429;-83
2021/08/26 07:33:28;;;;;;;12.90;5.60;;;17.30;1.00;;;;;;6181595;23;20396;-80
2021/08/26 07:35:55;;;;;;;12.60;5.47;;;17.20;1.00;;;;;;6183645;23;21245;-81
2021/08/26 07:38:22;;;;;;;9.50;5.10;;;17.20;1.00;;;;;;6180458;23;20405;-80
2021/08/26 07:40:49;;;;;;;15.00;6.73;;;17.30;1.00;;;;;;6180612;23;20881;-80
2021/08/26 07:43:17;;;;;;;9.23;4.63;;;17.60;1.00;;;;;;6180555;23;20439;-81
2021/08/26 07:45:44;;;;;;;6.03;3.87;;;17.80;1.00;;;;;;6181371;23;20418;-81
2021/08/26 07:48:11;;;;;;;7.23;3.67;;;17.90;1.00;;;;;;6182160;23;20870;-81
2021/08/26 07:50:40;;;;;;;9.47;5.10;;;17.90;1.00;;;;;;6181994;23;20505;-80
2021/08/26 07:53:07;;;;;;;10.33;4.23;;;17.90;1.00;;;;;;6184548;23;20400;-80
2021/08/26 07:55:33;;;;;;;7.20;4.13;;;18.00;1.00;;;;;;6194725;23;21090;-79
2021/08/26 07:58:00;;;;;;;11.70;4.97;;;18.10;1.00;;;;;;6203081;23;20366;-86
2021/08/26 08:00:29;;;;;;;9.13;3.40;;;18.20;1.00;;;;;;6203016;23;20500;-84
2021/08/26 08:03:08;;;;;;;4.83;3.03;;;18.20;1.00;;;;;;6194126;23;20875;-84
2021/08/26 08:05:35;;;;;;;5.83;3.77;;;18.20;1.00;;;;;;6186899;23;20924;-86
2021/08/26 08:08:02;;;;;;;5.97;3.73;;;18.40;1.00;;;;;;6188569;23;20378;-85
2021/08/26 08:10:29;;;;;;;5.87;3.23;;;18.50;1.00;;;;;;6190124;23;20879;-84
2021/08/26 08:12:55;;;;;;;13.40;4.23;;;18.70;1.00;;;;;;6196335;23;20369;-83
2021/08/26 08:15:22;;;;;;;8.53;4.30;;;19.10;1.00;;;;;;6202176;23;20471;-85
2021/08/26 08:17:51;;;;;;;7.47;3.53;;;19.50;1.00;;;;;;6206993;23;20378;-85
2021/08/26 08:20:18;;;;;;;6.13;2.87;;;19.90;1.00;;;;;;6206063;23;20382;-85
2021/08/26 08:22:45;;;;;;;5.90;3.27;;;20.20;1.00;;;;;;6207296;23;20398;-87
2021/08/26 08:25:12;;;;;;;3.97;1.90;;;20.20;1.00;;;;;;6207174;23;20395;-86
2021/08/26 08:27:39;;;;;;;5.80;2.37;;;20.00;1.00;;;;;;6203695;23;20697;-87
2021/08/26 08:30:07;;;;;;;4.13;2.33;;;19.70;1.00;;;;;;6202719;23;20374;-87
2021/08/26 08:32:34;;;;;;;6.40;2.70;;;19.40;1.00;;;;;;6193309;23;20604;-86
2021/08/26 08:35:03;;;;;;;5.30;3.30;;;19.10;1.00;;;;;;6184410;23;20413;-84
2021/08/26 08:37:30;;;;;;;5.57;3.07;;;18.90;1.00;;;;;;6183285;23;20417;-84
2021/08/26 08:39:56;;;;;;;4.67;2.20;;;18.80;1.00;;;;;;6187260;23;20410;-83
2021/08/26 08:42:24;;;;;;;7.40;1.97;;;18.70;1.00;;;;;;6190163;23;20806;-82
2021/08/26 08:44:51;;;;;;;5.60;3.20;;;18.50;1.00;;;;;;6180384;23;20417;-82
2021/08/26 08:47:19;;;;;;;4.80;2.87;;;18.40;1.00;;;;;;6182009;23;20439;-81
2021/08/26 08:49:50;;;;;;;5.60;2.77;;;18.50;1.00;;;;;;6177786;23;20907;-82
2021/08/26 08:52:19;;;;;;;6.10;3.80;;;18.90;1.00;;;;;;6178366;23;20420;-82
2021/08/26 08:54:47;;;;;;;4.80;2.53;;;19.50;1.00;;;;;;6180403;23;20366;-81
2021/08/26 08:57:14;;;;;;;4.13;2.93;;;20.30;1.00;;;;;;6185089;23;20406;-81
2021/08/26 08:59:41;;;;;;;8.83;3.50;;;20.70;1.00;;;;;;6187452;23;20449;-82
2021/08/26 09:02:08;;;;;;;7.23;2.43;;;20.50;1.00;;;;;;6190459;23;20457;-82
2021/08/26 09:04:53;;;;;;;5.23;2.10;;;19.70;1.00;;;;;;6185064;23;20377;-81
2021/08/26 09:07:26;;;;;;;5.10;3.00;;;18.70;1.00;;;;;;6184461;23;20449;-81
2021/08/26 09:09:53;;;;;;;6.67;5.87;;;17.80;1.00;;;;;;6188180;23;20397;-83
2021/08/26 09:12:21;;;;;;;5.70;2.57;;;17.30;1.00;;;;;;6193512;23;20443;-81
2021/08/26 09:14:48;;;;;;;3.73;2.37;;;16.90;1.00;;;;;;6184528;23;20397;-82
2021/08/26 09:17:22;;;;;;;4.87;2.80;;;16.70;1.00;;;;;;6182016;23;20396;-80
2021/08/26 09:19:49;;;;;;;5.10;2.60;;;16.50;1.00;;;;;;6183024;23;20416;-83
2021/08/26 09:22:23;;;;;;;6.40;2.70;;;16.40;1.00;;;;;;6181817;23;20420;-81
2021/08/26 09:24:52;;;;;;;3.67;2.40;;;16.50;1.00;;;;;;6181753;23;20431;-83
2021/08/26 09:27:38;;;;;;;4.40;2.50;;;16.80;1.00;;;;;;6182894;23;20533;-82
2021/08/26 09:30:07;;;;;;;6.00;4.90;;;17.10;1.00;;;;;;6183767;23;21278;-80
2021/08/26 09:32:35;;;;;;;4.90;2.83;;;17.20;1.00;;;;;;6186114;23;20439;-82
2021/08/26 09:35:14;;;;;;;3.93;2.57;;;17.50;1.00;;;;;;6185041;23;20513;-84
2021/08/26 09:37:46;;;;;;;5.57;3.07;;;17.70;1.00;;;;;;6184283;23;20868;-82
2021/08/26 09:40:15;;;;;;;6.73;3.10;;;18.10;1.00;;;;;;6183152;23;20405;-82
2021/08/26 09:42:42;;;;;;;5.27;3.87;;;18.40;1.00;;;;;;6184232;23;20417;-82
2021/08/26 09:45:21;;;;;;;3.90;2.30;;;18.60;1.00;;;;;;6182327;23;20378;-83
2021/08/26 09:47:59;;;;;;;3.63;2.47;;;18.50;1.00;;;;;;6185075;23;20398;-82
2021/08/26 09:50:37;;;;;;;3.73;2.10;;;18.70;1.00;;;;;;6182783;23;20414;-82
2021/08/26 09:53:07;;;;;;;5.27;2.97;;;19.40;1.00;;;;;;6184185;23;20847;-85
2021/08/26 09:55:56;;;;;;;4.20;2.50;;;19.80;1.00;;;;;;6185611;23;20452;-82
2021/08/26 09:58:25;;;;;;;3.90;2.03;;;20.00;1.00;;;;;;6186360;23;20465;-82
2021/08/26 10:01:08;;;;;;;4.90;2.13;;;20.00;1.00;;;;;;6189548;23;20401;-83
2021/08/26 10:03:35;;;;;;;4.87;2.50;;;20.50;1.00;;;;;;6185256;23;20442;-83
2021/08/26 10:06:02;;;;;;;5.30;4.47;;;21.80;1.00;;;;;;6186136;23;20446;-82
2021/08/26 10:08:31;;;;;;;4.53;2.30;;;22.80;1.00;;;;;;6194043;23;20507;-82
2021/08/26 10:11:00;;;;;;;3.50;1.53;;;23.10;1.00;;;;;;6201605;23;20380;-82
2021/08/26 10:13:28;;;;;;;4.80;1.43;;;22.90;1.00;;;;;;6203789;23;20376;-82
2021/08/26 10:15:55;;;;;;;3.30;2.20;;;23.50;1.00;;;;;;6205358;23;20403;-82
2021/08/26 10:18:23;;;;;;;3.17;1.60;;;24.50;1.00;;;;;;6201895;23;20368;-83
2021/08/26 10:20:50;;;;;;;3.93;3.00;;;25.00;1.00;;;;;;6201281;23;20380;-83
2021/08/26 10:23:18;;;;;;;4.73;4.23;;;25.70;1.00;;;;;;6197915;23;20449;-84
2021/08/26 10:25:47;;;;;;;2.17;1.53;;;26.60;1.00;;;;;;6195428;23;20412;-85
2021/08/26 10:28:16;;;;;;;3.87;1.90;;;27.60;1.00;;;;;;6191576;23;20810;-82
2021/08/26 10:30:43;;;;;;;2.10;1.00;;;28.70;1.00;;;;;;6188537;23;20393;-84
2021/08/26 10:33:12;;;;;;;3.10;0.90;;;29.30;1.00;;;;;;6194650;23;20448;-85
2021/08/26 10:36:04;;;;;;;2.00;0.63;;;30.00;1.00;;;;;;6195568;23;20389;-84
2021/08/26 10:38:32;;;;;;;4.00;0.90;;;30.10;1.00;;;;;;6191441;23;20480;-86
2021/08/26 10:41:19;;;;;;;3.87;1.40;;;29.60;1.00;;;;;;6191179;23;21085;-86
2021/08/26 10:43:59;;;;;;;2.20;1.17;;;28.50;1.00;;;;;;6185714;23;20464;-86
2021/08/26 10:46:47;;;;;;;2.83;0.77;;;26.40;1.00;;;;;;6184696;23;20396;-85
2021/08/26 10:49:14;;;;;;;1.90;0.90;;;26.10;1.00;;;;;;6183876;23;20430;-85
2021/08/26 10:51:42;;;;;;;3.17;1.00;;;26.50;1.00;;;;;;6182703;23;20633;-86
2021/08/26 10:54:28;;;;;;;1.90;0.70;;;26.50;1.00;;;;;;6185692;23;21283;-85
2021/08/26 10:56:56;;;;;;;3.50;1.37;;;26.00;1.00;;;;;;6184332;23;20434;-86
2021/08/26 10:59:32;;;;;;;2.77;1.20;;;25.60;1.00;;;;;;6181630;23;20399;-84
2021/08/26 11:01:59;;;;;;;1.57;0.80;;;26.50;1.00;;;;;;6188094;23;20471;-85
2021/08/26 11:04:33;;;;;;;1.80;0.63;;;27.80;1.00;;;;;;6185469;23;20470;-85
2021/08/26 11:07:00;;;;;;;1.60;0.53;;;28.20;1.00;;;;;;6189550;23;20399;-86
2021/08/26 11:09:33;;;;;;;2.20;0.77;;;27.80;1.00;;;;;;6187108;23;20596;-85
2021/08/26 11:12:06;;;;;;;2.67;0.90;;;28.50;1.00;;;;;;6184285;23;20460;-87
2021/08/26 11:14:39;;;;;;;1.93;0.83;;;29.90;1.00;;;;;;6189925;23;20400;-85
2021/08/26 11:17:07;;;;;;;2.37;1.00;;;31.20;1.00;;;;;;6194805;23;20481;-84
2021/08/26 11:19:37;;;;;;;1.97;0.70;;;32.20;1.00;;;;;;6206200;23;20368;-86
2021/08/26 11:22:10;;;;;;;3.10;1.00;;;32.00;1.00;;;;;;6199482;23;20473;-85
2021/08/26 11:25:00;;;;;;;3.33;2.03;;;30.50;1.00;;;;;;6193921;23;20508;-86
2021/08/26 11:27:32;;;;;;;1.57;0.50;;;29.60;1.00;;;;;;6192465;23;21307;-85
2021/08/26 11:30:23;;;;;;;1.03;0.47;;;28.90;1.00;;;;;;6188481;23;20409;-86
2021/08/26 11:32:49;;;;;;;2.80;1.73;;;29.60;1.00;;;;;;6185552;23;20413;-85
2021/08/26 11:35:17;;;;;;;2.57;1.00;;;29.20;1.00;;;;;;6184432;23;20430;-84
2021/08/26 11:37:44;;;;;;;2.07;0.80;;;29.00;1.00;;;;;;6184240;23;21460;-86
2021/08/26 11:40:14;;;;;;;4.63;1.17;;;29.20;1.00;;;;;;6188574;23;20873;-86
2021/08/26 11:42:44;;;;;;;5.30;1.30;;;29.00;1.00;;;;;;6187642;23;20438;-86
2021/08/26 11:45:26;;;;;;;2.30;0.83;;;29.10;1.00;;;;;;6184609;23;20417;-88
2021/08/26 11:47:54;;;;;;;2.03;0.90;;;30.60;1.00;;;;;;6188337;23;20425;-86
2021/08/26 11:50:24;;;;;;;2.03;0.80;;;31.00;1.00;;;;;;6188958;23;20909;-86
2021/08/26 11:52:55;;;;;;;1.87;1.00;;;30.00;1.00;;;;;;6186230;23;20557;-87
2021/08/26 11:55:23;;;;;;;2.40;0.90;;;28.20;1.00;;;;;;6185666;23;20387;-88
2021/08/26 11:57:58;;;;;;;2.20;1.30;;;27.40;1.00;;;;;;6187101;23;20391;-85
2021/08/26 12:00:30;;;;;;;1.60;0.57;;;27.60;1.00;;;;;;6187840;23;20523;-87
2021/08/26 12:02:58;;;;;;;1.67;0.50;;;26.70;1.00;;;;;;6187403;23;20407;-86
2021/08/26 12:05:29;;;;;;;1.70;0.60;;;26.40;1.00;;;;;;6188066;23;20404;-86
2021/08/26 12:07:58;;;;;;;3.77;0.77;;;26.80;1.00;;;;;;6186136;23;20450;-87
2021/08/26 12:10:32;;;;;;;1.50;0.67;;;26.00;1.00;;;;;;6187907;23;20458;-86
2021/08/26 12:13:02;;;;;;;2.20;0.80;;;25.10;1.00;;;;;;6186205;23;20431;-84
2021/08/26 12:15:35;;;;;;;2.53;0.90;;;23.80;1.00;;;;;;6185350;23;20892;-83
2021/08/26 12:18:09;;;;;;;1.90;0.60;;;22.80;1.00;;;;;;6184376;23;20387;-84
2021/08/26 12:20:38;;;;;;;1.17;0.67;;;22.00;1.00;;;;;;6186496;23;20477;-83
2021/08/26 12:23:05;;;;;;;1.50;0.50;;;21.30;1.00;;;;;;6186739;23;20420;-83
2021/08/26 12:25:33;;;;;;;3.60;1.60;;;20.80;1.00;;;;;;6184165;23;20422;-85
2021/08/26 12:28:02;;;;;;;1.50;0.80;;;20.60;1.00;;;;;;6184901;23;21028;-83
2021/08/26 12:30:40;;;;;;;1.87;0.70;;;20.50;1.00;;;;;;6185669;23;20410;-86
2021/08/26 12:33:11;;;;;;;2.73;1.40;;;20.40;1.00;;;;;;6186482;23;20438;-83
2021/08/26 12:35:49;;;;;;;2.70;1.00;;;20.40;1.00;;;;;;6186603;23;20407;-84
2021/08/26 12:38:17;;;;;;;1.60;0.90;;;20.60;1.00;;;;;;6188076;23;20380;-83
2021/08/26 12:40:54;;;;;;;2.20;1.00;;;20.70;1.00;;;;;;6192268;23;20388;-84
2021/08/26 12:43:24;;;;;;;1.67;0.70;;;20.70;1.00;;;;;;6210972;23;20417;-85
2021/08/26 12:46:04;;;;;;;2.27;1.40;;;20.70;1.00;;;;;;6208908;23;20566;-81
2021/08/26 12:48:33;;;;;;;3.73;1.10;;;20.80;1.00;;;;;;6194927;23;20573;-79
2021/08/26 12:51:24;;;;;;;2.60;1.00;;;21.20;1.00;;;;;;6184883;23;20445;-82
2021/08/26 12:54:11;;;;;;;3.37;1.37;;;22.10;1.00;;;;;;6183690;23;20480;-83
2021/08/26 12:56:45;;;;;;;1.97;1.27;;;23.30;1.00;;;;;;6183667;23;20411;-83
2021/08/26 12:59:12;;;;;;;2.97;1.37;;;23.80;1.00;;;;;;6186552;23;20903;-83
2021/08/26 13:01:42;;;;;;;2.03;0.73;;;24.40;1.00;;;;;;6192712;23;20377;-81
2021/08/26 13:04:22;;;;;;;3.30;0.67;;;26.30;1.00;;;;;;6197666;23;20972;-82
2021/08/26 13:06:51;;;;;;;2.67;0.83;;;28.80;1.00;;;;;;6210086;23;21063;-83
2021/08/26 13:09:31;;;;;;;1.60;0.60;;;30.60;1.00;;;;;;6208501;23;20391;-82
2021/08/26 13:12:02;;;;;;;1.37;0.53;;;32.30;1.00;;;;;;6204156;23;20933;-82
2021/08/26 13:14:31;;;;;;;3.00;0.77;;;32.70;1.00;;;;;;6205271;23;20400;-81
2021/08/26 13:16:59;;;;;;;2.10;0.57;;;33.40;1.00;;;;;;6202178;23;20376;-81
2021/08/26 13:19:29;;;;;;;3.57;0.90;;;33.50;1.00;;;;;;6205551;23;20494;-84
2021/08/26 13:21:56;;;;;;;3.63;0.70;;;32.50;1.00;;;;;;6196510;23;20906;-84
2021/08/26 13:24:23;;;;;;;1.43;0.50;;;30.40;1.00;;;;;;6190934;23;20538;-83
2021/08/26 13:26:50;;;;;;;2.10;0.93;;;28.30;1.00;;;;;;6188456;23;20390;-82
2021/08/26 13:29:17;;;;;;;2.53;1.40;;;26.90;1.00;;;;;;6186319;23;20436;-83
2021/08/26 13:31:53;;;;;;;3.03;1.63;;;25.60;1.00;;;;;;6186572;23;20821;-84
2021/08/26 13:34:21;;;;;;;2.23;1.10;;;24.60;1.00;;;;;;6188338;23;20437;-82
2021/08/26 13:36:48;;;;;;;2.57;1.13;;;23.70;1.00;;;;;;6184103;23;20393;-81
2021/08/26 13:39:14;;;;;;;1.80;1.10;;;23.00;1.00;;;;;;6184806;23;20470;-83
2021/08/26 13:41:42;;;;;;;2.83;1.50;;;22.80;1.00;;;;;;6186952;23;20416;-83
2021/08/26 13:44:09;;;;;;;3.70;1.73;;;23.00;1.00;;;;;;6182633;23;20394;-82
2021/08/26 13:46:36;;;;;;;2.00;0.77;;;23.20;1.00;;;;;;6181000;23;20469;-83
2021/08/26 13:49:03;;;;;;;1.90;1.40;;;23.00;1.00;;;;;;6179390;23;20409;-82
2021/08/26 13:51:32;;;;;;;2.53;1.50;;;22.30;1.00;;;;;;6184346;23;21156;-82
2021/08/26 13:53:58;;;;;;;4.57;1.97;;;21.80;1.00;;;;;;6183981;23;20424;-81
2021/08/26 13:56:25;;;;;;;3.70;1.10;;;21.30;1.00;;;;;;6184026;23;20448;-83
2021/08/26 13:58:52;;;;;;;3.17;1.40;;;21.10;1.00;;;;;;6180880;23;20392;-83
2021/08/26 14:01:18;;;;;;;3.33;1.17;;;20.90;1.00;;;;;;6184859;23;20400;-83
2021/08/26 14:03:45;;;;;;;4.50;2.10;;;20.80;1.00;;;;;;6186258;23;20399;-82
2021/08/26 14:06:12;;;;;;;6.37;1.37;;;20.70;1.00;;;;;;6192220;23;21204;-82
2021/08/26 14:08:41;;;;;;;4.63;3.43;;;20.60;1.00;;;;;;6200513;23;20374;-83
2021/08/26 14:11:09;;;;;;;3.63;1.77;;;20.50;1.00;;;;;;6204323;23;20428;-82
2021/08/26 14:13:35;;;;;;;2.10;1.00;;;20.50;1.00;;;;;;6200014;23;20415;-82